<?xml version="1.0" encoding="UTF-8" standalone="no" ?>
<gpx xmlns="http://www.topografix.com/GPX/1/1" xmlns:xsi="http://www.w3.org/2001/XMLSchema-instance" xsi:schemaLocation="http://www.topografix.com/GPX/1/1 http://www.topografix.com/GPX/1/1/gpx.xsd" version="1.1" creator="VisuGPX - https://www.visugpx.com">
  <metadata>
    <name>BRC  Alleyras Truc de la garde</name>
  </metadata>
  <wpt lat="44.86122" lon="3.48898">
    <ele>1149</ele>
    <name><![CDATA[Point de passage 1]]></name>
    <type><![CDATA[GENERIC]]></type>
  </wpt>
  <wpt lat="44.86124" lon="3.487">
    <ele>1134</ele>
    <name><![CDATA[Point de passage 2]]></name>
    <type><![CDATA[GENERIC]]></type>
  </wpt>
  <trk>
    <name><![CDATA[BRC  Alleyras Truc de la garde ]]></name>
    <trkseg>
      <trkpt lat="44.86122" lon="3.48898">
        <ele>1149</ele>
        <time>2025-09-18T07:43:59.000Z</time>
      </trkpt>
      <trkpt lat="44.86135" lon="3.4887">
        <ele>1153</ele>
        <time>2025-09-18T07:45:35.000Z</time>
      </trkpt>
      <trkpt lat="44.86147" lon="3.48842">
        <ele>1153</ele>
        <time>2025-09-18T07:46:08.000Z</time>
      </trkpt>
      <trkpt lat="44.86157" lon="3.48813">
        <ele>1150</ele>
        <time>2025-09-18T07:46:38.000Z</time>
      </trkpt>
      <trkpt lat="44.86161" lon="3.4878">
        <ele>1154</ele>
        <time>2025-09-18T07:47:00.000Z</time>
      </trkpt>
      <trkpt lat="44.86173" lon="3.48752">
        <ele>1147</ele>
        <time>2025-09-18T08:06:38.000Z</time>
      </trkpt>
      <trkpt lat="44.86193" lon="3.48738">
        <ele>1152</ele>
        <time>2025-09-18T08:07:00.000Z</time>
      </trkpt>
      <trkpt lat="44.86213" lon="3.48722">
        <ele>1157</ele>
        <time>2025-09-18T08:07:30.000Z</time>
      </trkpt>
      <trkpt lat="44.86232" lon="3.48703">
        <ele>1156</ele>
        <time>2025-09-18T08:08:00.000Z</time>
      </trkpt>
      <trkpt lat="44.8625" lon="3.48682">
        <ele>1159</ele>
        <time>2025-09-18T08:10:11.000Z</time>
      </trkpt>
      <trkpt lat="44.86268" lon="3.48663">
        <ele>1156</ele>
        <time>2025-09-18T08:10:33.000Z</time>
      </trkpt>
      <trkpt lat="44.86287" lon="3.48644">
        <ele>1156</ele>
        <time>2025-09-18T08:10:55.000Z</time>
      </trkpt>
      <trkpt lat="44.86306" lon="3.48627">
        <ele>1162</ele>
        <time>2025-09-18T08:11:18.000Z</time>
      </trkpt>
      <trkpt lat="44.86323" lon="3.48604">
        <ele>1162</ele>
        <time>2025-09-18T08:11:40.000Z</time>
      </trkpt>
      <trkpt lat="44.86338" lon="3.4858">
        <ele>1162</ele>
        <time>2025-09-18T08:12:01.000Z</time>
      </trkpt>
      <trkpt lat="44.86353" lon="3.48554">
        <ele>1166</ele>
        <time>2025-09-18T08:12:24.000Z</time>
      </trkpt>
      <trkpt lat="44.86363" lon="3.48526">
        <ele>1170</ele>
        <time>2025-09-18T08:12:48.000Z</time>
      </trkpt>
      <trkpt lat="44.86367" lon="3.48494">
        <ele>1170</ele>
        <time>2025-09-18T08:13:09.000Z</time>
      </trkpt>
      <trkpt lat="44.86372" lon="3.48463">
        <ele>1172</ele>
        <time>2025-09-18T08:13:30.000Z</time>
      </trkpt>
      <trkpt lat="44.86378" lon="3.48431">
        <ele>1175</ele>
        <time>2025-09-18T08:13:51.000Z</time>
      </trkpt>
      <trkpt lat="44.86386" lon="3.484">
        <ele>1179</ele>
        <time>2025-09-18T08:14:18.000Z</time>
      </trkpt>
      <trkpt lat="44.86394" lon="3.4837">
        <ele>1184</ele>
        <time>2025-09-18T08:14:46.000Z</time>
      </trkpt>
      <trkpt lat="44.86404" lon="3.48341">
        <ele>1183</ele>
        <time>2025-09-18T08:15:09.000Z</time>
      </trkpt>
      <trkpt lat="44.86413" lon="3.48312">
        <ele>1186</ele>
        <time>2025-09-18T08:15:35.000Z</time>
      </trkpt>
      <trkpt lat="44.86408" lon="3.48281">
        <ele>1189</ele>
        <time>2025-09-18T08:15:56.000Z</time>
      </trkpt>
      <trkpt lat="44.86392" lon="3.48257">
        <ele>1191</ele>
        <time>2025-09-18T08:16:24.000Z</time>
      </trkpt>
      <trkpt lat="44.86369" lon="3.48255">
        <ele>1194</ele>
        <time>2025-09-18T08:16:48.000Z</time>
      </trkpt>
      <trkpt lat="44.86347" lon="3.48243">
        <ele>1198</ele>
        <time>2025-09-18T08:17:15.000Z</time>
      </trkpt>
      <trkpt lat="44.86328" lon="3.48225">
        <ele>1197</ele>
        <time>2025-09-18T08:17:39.000Z</time>
      </trkpt>
      <trkpt lat="44.86313" lon="3.48201">
        <ele>1200</ele>
        <time>2025-09-18T08:18:04.000Z</time>
      </trkpt>
      <trkpt lat="44.86303" lon="3.48171">
        <ele>1205</ele>
        <time>2025-09-18T08:18:30.000Z</time>
      </trkpt>
      <trkpt lat="44.86292" lon="3.48143">
        <ele>1209</ele>
        <time>2025-09-18T08:18:55.000Z</time>
      </trkpt>
      <trkpt lat="44.86285" lon="3.48112">
        <ele>1214</ele>
        <time>2025-09-18T08:19:22.000Z</time>
      </trkpt>
      <trkpt lat="44.86306" lon="3.48096">
        <ele>1218</ele>
        <time>2025-09-18T08:19:58.000Z</time>
      </trkpt>
      <trkpt lat="44.86329" lon="3.48089">
        <ele>1219</ele>
        <time>2025-09-18T08:20:21.000Z</time>
      </trkpt>
      <trkpt lat="44.8635" lon="3.48078">
        <ele>1220</ele>
        <time>2025-09-18T08:20:43.000Z</time>
      </trkpt>
      <trkpt lat="44.86369" lon="3.48059">
        <ele>1219</ele>
        <time>2025-09-18T08:21:09.000Z</time>
      </trkpt>
      <trkpt lat="44.86368" lon="3.48027">
        <ele>1217</ele>
        <time>2025-09-18T08:26:48.000Z</time>
      </trkpt>
      <trkpt lat="44.8636" lon="3.47996">
        <ele>1224</ele>
        <time>2025-09-18T08:27:15.000Z</time>
      </trkpt>
      <trkpt lat="44.86352" lon="3.47966">
        <ele>1223</ele>
        <time>2025-09-18T08:27:42.000Z</time>
      </trkpt>
      <trkpt lat="44.86345" lon="3.47935">
        <ele>1227</ele>
        <time>2025-09-18T08:28:09.000Z</time>
      </trkpt>
      <trkpt lat="44.86337" lon="3.47905">
        <ele>1229</ele>
        <time>2025-09-18T08:28:33.000Z</time>
      </trkpt>
      <trkpt lat="44.86332" lon="3.47874">
        <ele>1229</ele>
        <time>2025-09-18T08:28:59.000Z</time>
      </trkpt>
      <trkpt lat="44.86327" lon="3.47843">
        <ele>1234</ele>
        <time>2025-09-18T08:29:23.000Z</time>
      </trkpt>
      <trkpt lat="44.86322" lon="3.47812">
        <ele>1236</ele>
        <time>2025-09-18T08:29:53.000Z</time>
      </trkpt>
      <trkpt lat="44.8631" lon="3.47785">
        <ele>1237</ele>
        <time>2025-09-18T08:30:22.000Z</time>
      </trkpt>
      <trkpt lat="44.86303" lon="3.47755">
        <ele>1239</ele>
        <time>2025-09-18T08:30:48.000Z</time>
      </trkpt>
      <trkpt lat="44.86311" lon="3.47724">
        <ele>1238</ele>
        <time>2025-09-18T08:31:14.000Z</time>
      </trkpt>
      <trkpt lat="44.86324" lon="3.47698">
        <ele>1238</ele>
        <time>2025-09-18T08:31:40.000Z</time>
      </trkpt>
      <trkpt lat="44.86336" lon="3.4767">
        <ele>1246</ele>
        <time>2025-09-18T08:32:06.000Z</time>
      </trkpt>
      <trkpt lat="44.86343" lon="3.4764">
        <ele>1246</ele>
        <time>2025-09-18T08:32:32.000Z</time>
      </trkpt>
      <trkpt lat="44.86351" lon="3.47609">
        <ele>1247</ele>
        <time>2025-09-18T08:32:58.000Z</time>
      </trkpt>
      <trkpt lat="44.86357" lon="3.47576">
        <ele>1253</ele>
        <time>2025-09-18T08:33:25.000Z</time>
      </trkpt>
      <trkpt lat="44.86372" lon="3.47553">
        <ele>1252</ele>
        <time>2025-09-18T08:33:52.000Z</time>
      </trkpt>
      <trkpt lat="44.86388" lon="3.47528">
        <ele>1257</ele>
        <time>2025-09-18T08:34:24.000Z</time>
      </trkpt>
      <trkpt lat="44.86402" lon="3.47503">
        <ele>1260</ele>
        <time>2025-09-18T08:34:55.000Z</time>
      </trkpt>
      <trkpt lat="44.86408" lon="3.47472">
        <ele>1268</ele>
        <time>2025-09-18T08:35:23.000Z</time>
      </trkpt>
      <trkpt lat="44.86416" lon="3.4744">
        <ele>1258</ele>
        <time>2025-09-18T08:35:51.000Z</time>
      </trkpt>
      <trkpt lat="44.86421" lon="3.4741">
        <ele>1267</ele>
        <time>2025-09-18T08:36:19.000Z</time>
      </trkpt>
      <trkpt lat="44.86421" lon="3.47378">
        <ele>1264</ele>
        <time>2025-09-18T08:36:49.000Z</time>
      </trkpt>
      <trkpt lat="44.8641" lon="3.47349">
        <ele>1273</ele>
        <time>2025-09-18T08:37:15.000Z</time>
      </trkpt>
      <trkpt lat="44.86395" lon="3.47326">
        <ele>1272</ele>
        <time>2025-09-18T08:37:49.000Z</time>
      </trkpt>
      <trkpt lat="44.86415" lon="3.47311">
        <ele>1276</ele>
        <time>2025-09-18T08:44:25.000Z</time>
      </trkpt>
      <trkpt lat="44.86436" lon="3.47322">
        <ele>1279</ele>
        <time>2025-09-18T08:44:53.000Z</time>
      </trkpt>
      <trkpt lat="44.86459" lon="3.47329">
        <ele>1286</ele>
        <time>2025-09-18T08:45:21.000Z</time>
      </trkpt>
      <trkpt lat="44.8648" lon="3.47344">
        <ele>1289</ele>
        <time>2025-09-18T08:45:50.000Z</time>
      </trkpt>
      <trkpt lat="44.86503" lon="3.47345">
        <ele>1287</ele>
        <time>2025-09-18T08:46:09.000Z</time>
      </trkpt>
      <trkpt lat="44.86526" lon="3.47344">
        <ele>1292</ele>
        <time>2025-09-18T08:46:45.000Z</time>
      </trkpt>
      <trkpt lat="44.86547" lon="3.47325">
        <ele>1295</ele>
        <time>2025-09-18T08:47:14.000Z</time>
      </trkpt>
      <trkpt lat="44.8657" lon="3.47326">
        <ele>1291</ele>
        <time>2025-09-18T08:47:38.000Z</time>
      </trkpt>
      <trkpt lat="44.8659" lon="3.4731">
        <ele>1292</ele>
        <time>2025-09-18T08:48:02.000Z</time>
      </trkpt>
      <trkpt lat="44.866" lon="3.47282">
        <ele>1295</ele>
        <time>2025-09-18T08:48:25.000Z</time>
      </trkpt>
      <trkpt lat="44.86607" lon="3.47251">
        <ele>1297</ele>
        <time>2025-09-18T08:48:55.000Z</time>
      </trkpt>
      <trkpt lat="44.86616" lon="3.47223">
        <ele>1301</ele>
        <time>2025-09-18T08:49:28.000Z</time>
      </trkpt>
      <trkpt lat="44.86621" lon="3.47191">
        <ele>1304</ele>
        <time>2025-09-18T08:49:57.000Z</time>
      </trkpt>
      <trkpt lat="44.86626" lon="3.4716">
        <ele>1308</ele>
        <time>2025-09-18T08:50:27.000Z</time>
      </trkpt>
      <trkpt lat="44.86635" lon="3.4713">
        <ele>1307</ele>
        <time>2025-09-18T08:50:56.000Z</time>
      </trkpt>
      <trkpt lat="44.86644" lon="3.471">
        <ele>1308</ele>
        <time>2025-09-18T08:51:30.000Z</time>
      </trkpt>
      <trkpt lat="44.86655" lon="3.47071">
        <ele>1310</ele>
        <time>2025-09-18T08:52:00.000Z</time>
      </trkpt>
      <trkpt lat="44.8666" lon="3.4704">
        <ele>1313</ele>
        <time>2025-09-18T08:52:29.000Z</time>
      </trkpt>
      <trkpt lat="44.8667" lon="3.47011">
        <ele>1318</ele>
        <time>2025-09-18T08:52:59.000Z</time>
      </trkpt>
      <trkpt lat="44.86679" lon="3.46982">
        <ele>1318</ele>
        <time>2025-09-18T08:53:26.000Z</time>
      </trkpt>
      <trkpt lat="44.86686" lon="3.46951">
        <ele>1321</ele>
        <time>2025-09-18T08:54:01.000Z</time>
      </trkpt>
      <trkpt lat="44.86683" lon="3.46917">
        <ele>1320</ele>
        <time>2025-09-18T08:54:27.000Z</time>
      </trkpt>
      <trkpt lat="44.86683" lon="3.46885">
        <ele>1324</ele>
        <time>2025-09-18T08:54:54.000Z</time>
      </trkpt>
      <trkpt lat="44.86679" lon="3.46853">
        <ele>1326</ele>
        <time>2025-09-18T08:55:17.000Z</time>
      </trkpt>
      <trkpt lat="44.86676" lon="3.4682">
        <ele>1330</ele>
        <time>2025-09-18T08:55:45.000Z</time>
      </trkpt>
      <trkpt lat="44.86674" lon="3.46788">
        <ele>1328</ele>
        <time>2025-09-18T08:56:08.000Z</time>
      </trkpt>
      <trkpt lat="44.86675" lon="3.46756">
        <ele>1326</ele>
        <time>2025-09-18T08:56:29.000Z</time>
      </trkpt>
      <trkpt lat="44.86676" lon="3.46724">
        <ele>1328</ele>
        <time>2025-09-18T08:56:47.000Z</time>
      </trkpt>
      <trkpt lat="44.86672" lon="3.46692">
        <ele>1326</ele>
        <time>2025-09-18T08:57:09.000Z</time>
      </trkpt>
      <trkpt lat="44.86667" lon="3.46661">
        <ele>1329</ele>
        <time>2025-09-18T08:57:28.000Z</time>
      </trkpt>
      <trkpt lat="44.86663" lon="3.46629">
        <ele>1328</ele>
        <time>2025-09-18T08:57:48.000Z</time>
      </trkpt>
      <trkpt lat="44.86658" lon="3.46596">
        <ele>1327</ele>
        <time>2025-09-18T08:58:09.000Z</time>
      </trkpt>
      <trkpt lat="44.86653" lon="3.46563">
        <ele>1328</ele>
        <time>2025-09-18T09:02:31.000Z</time>
      </trkpt>
      <trkpt lat="44.86664" lon="3.46535">
        <ele>1326</ele>
        <time>2025-09-18T09:03:00.000Z</time>
      </trkpt>
      <trkpt lat="44.86675" lon="3.46507">
        <ele>1324</ele>
        <time>2025-09-18T09:03:39.000Z</time>
      </trkpt>
      <trkpt lat="44.86677" lon="3.46474">
        <ele>1324</ele>
        <time>2025-09-18T09:04:00.000Z</time>
      </trkpt>
      <trkpt lat="44.86677" lon="3.46441">
        <ele>1324</ele>
        <time>2025-09-18T09:04:19.000Z</time>
      </trkpt>
      <trkpt lat="44.86676" lon="3.46408">
        <ele>1324</ele>
        <time>2025-09-18T09:04:37.000Z</time>
      </trkpt>
      <trkpt lat="44.86676" lon="3.46375">
        <ele>1321</ele>
        <time>2025-09-18T09:04:55.000Z</time>
      </trkpt>
      <trkpt lat="44.86677" lon="3.46343">
        <ele>1322</ele>
        <time>2025-09-18T09:05:12.000Z</time>
      </trkpt>
      <trkpt lat="44.86681" lon="3.46311">
        <ele>1322</ele>
        <time>2025-09-18T09:05:54.000Z</time>
      </trkpt>
      <trkpt lat="44.86689" lon="3.4628">
        <ele>1319</ele>
        <time>2025-09-18T09:06:15.000Z</time>
      </trkpt>
      <trkpt lat="44.86698" lon="3.46251">
        <ele>1319</ele>
        <time>2025-09-18T09:06:40.000Z</time>
      </trkpt>
      <trkpt lat="44.86707" lon="3.4622">
        <ele>1318</ele>
        <time>2025-09-18T09:07:02.000Z</time>
      </trkpt>
      <trkpt lat="44.86714" lon="3.46188">
        <ele>1319</ele>
        <time>2025-09-18T09:07:21.000Z</time>
      </trkpt>
      <trkpt lat="44.86716" lon="3.46156">
        <ele>1319</ele>
        <time>2025-09-18T09:07:46.000Z</time>
      </trkpt>
      <trkpt lat="44.86715" lon="3.46124">
        <ele>1317</ele>
        <time>2025-09-18T09:08:06.000Z</time>
      </trkpt>
      <trkpt lat="44.86708" lon="3.46092">
        <ele>1318</ele>
        <time>2025-09-18T09:09:03.000Z</time>
      </trkpt>
      <trkpt lat="44.86699" lon="3.46062">
        <ele>1322</ele>
        <time>2025-09-18T09:09:27.000Z</time>
      </trkpt>
      <trkpt lat="44.86691" lon="3.4603">
        <ele>1321</ele>
        <time>2025-09-18T09:09:49.000Z</time>
      </trkpt>
      <trkpt lat="44.86687" lon="3.45997">
        <ele>1326</ele>
        <time>2025-09-18T09:10:11.000Z</time>
      </trkpt>
      <trkpt lat="44.86684" lon="3.45965">
        <ele>1323</ele>
        <time>2025-09-18T09:10:32.000Z</time>
      </trkpt>
      <trkpt lat="44.86681" lon="3.45933">
        <ele>1321</ele>
        <time>2025-09-18T09:10:52.000Z</time>
      </trkpt>
      <trkpt lat="44.8667" lon="3.45905">
        <ele>1326</ele>
        <time>2025-09-18T09:11:13.000Z</time>
      </trkpt>
      <trkpt lat="44.86661" lon="3.45875">
        <ele>1327</ele>
        <time>2025-09-18T09:11:32.000Z</time>
      </trkpt>
      <trkpt lat="44.86654" lon="3.45844">
        <ele>1326</ele>
        <time>2025-09-18T09:11:51.000Z</time>
      </trkpt>
      <trkpt lat="44.86643" lon="3.45815">
        <ele>1328</ele>
        <time>2025-09-18T09:12:13.000Z</time>
      </trkpt>
      <trkpt lat="44.86638" lon="3.45781">
        <ele>1329</ele>
        <time>2025-09-18T09:12:35.000Z</time>
      </trkpt>
      <trkpt lat="44.86636" lon="3.45748">
        <ele>1328</ele>
        <time>2025-09-18T09:12:56.000Z</time>
      </trkpt>
      <trkpt lat="44.86636" lon="3.45716">
        <ele>1323</ele>
        <time>2025-09-18T09:18:20.000Z</time>
      </trkpt>
      <trkpt lat="44.86639" lon="3.45683">
        <ele>1327</ele>
        <time>2025-09-18T09:18:41.000Z</time>
      </trkpt>
      <trkpt lat="44.86641" lon="3.45651">
        <ele>1327</ele>
        <time>2025-09-18T09:19:01.000Z</time>
      </trkpt>
      <trkpt lat="44.86638" lon="3.45619">
        <ele>1326</ele>
        <time>2025-09-18T09:19:22.000Z</time>
      </trkpt>
      <trkpt lat="44.86638" lon="3.45586">
        <ele>1323</ele>
        <time>2025-09-18T09:19:43.000Z</time>
      </trkpt>
      <trkpt lat="44.86635" lon="3.45554">
        <ele>1326</ele>
        <time>2025-09-18T09:20:03.000Z</time>
      </trkpt>
      <trkpt lat="44.86631" lon="3.45521">
        <ele>1324</ele>
        <time>2025-09-18T09:20:22.000Z</time>
      </trkpt>
      <trkpt lat="44.86632" lon="3.45489">
        <ele>1330</ele>
        <time>2025-09-18T09:20:42.000Z</time>
      </trkpt>
      <trkpt lat="44.86636" lon="3.45458">
        <ele>1327</ele>
        <time>2025-09-18T09:21:17.000Z</time>
      </trkpt>
      <trkpt lat="44.86631" lon="3.45424">
        <ele>1331</ele>
        <time>2025-09-18T09:21:42.000Z</time>
      </trkpt>
      <trkpt lat="44.86632" lon="3.45391">
        <ele>1335</ele>
        <time>2025-09-18T09:22:17.000Z</time>
      </trkpt>
      <trkpt lat="44.86635" lon="3.45358">
        <ele>1336</ele>
        <time>2025-09-18T09:22:54.000Z</time>
      </trkpt>
      <trkpt lat="44.86634" lon="3.45325">
        <ele>1343</ele>
        <time>2025-09-18T09:23:44.000Z</time>
      </trkpt>
      <trkpt lat="44.86633" lon="3.45289">
        <ele>1350</ele>
        <time>2025-09-18T09:24:27.000Z</time>
      </trkpt>
      <trkpt lat="44.86632" lon="3.45256">
        <ele>1355</ele>
        <time>2025-09-18T09:24:58.000Z</time>
      </trkpt>
      <trkpt lat="44.86635" lon="3.45223">
        <ele>1361</ele>
        <time>2025-09-18T09:25:28.000Z</time>
      </trkpt>
      <trkpt lat="44.86634" lon="3.4519">
        <ele>1363</ele>
        <time>2025-09-18T09:25:52.000Z</time>
      </trkpt>
      <trkpt lat="44.86634" lon="3.45157">
        <ele>1371</ele>
        <time>2025-09-18T09:26:13.000Z</time>
      </trkpt>
      <trkpt lat="44.86637" lon="3.45124">
        <ele>1371</ele>
        <time>2025-09-18T09:26:33.000Z</time>
      </trkpt>
      <trkpt lat="44.86639" lon="3.45092">
        <ele>1374</ele>
        <time>2025-09-18T09:26:56.000Z</time>
      </trkpt>
      <trkpt lat="44.86642" lon="3.4506">
        <ele>1373</ele>
        <time>2025-09-18T09:27:16.000Z</time>
      </trkpt>
      <trkpt lat="44.86645" lon="3.45028">
        <ele>1377</ele>
        <time>2025-09-18T09:27:35.000Z</time>
      </trkpt>
      <trkpt lat="44.86647" lon="3.44995">
        <ele>1380</ele>
        <time>2025-09-18T09:27:55.000Z</time>
      </trkpt>
      <trkpt lat="44.86648" lon="3.44962">
        <ele>1385</ele>
        <time>2025-09-18T09:28:17.000Z</time>
      </trkpt>
      <trkpt lat="44.86648" lon="3.44929">
        <ele>1383</ele>
        <time>2025-09-18T09:28:34.000Z</time>
      </trkpt>
      <trkpt lat="44.86647" lon="3.44897">
        <ele>1385</ele>
        <time>2025-09-18T09:28:57.000Z</time>
      </trkpt>
      <trkpt lat="44.86652" lon="3.44865">
        <ele>1386</ele>
        <time>2025-09-18T09:29:19.000Z</time>
      </trkpt>
      <trkpt lat="44.86658" lon="3.44834">
        <ele>1386</ele>
        <time>2025-09-18T09:29:36.000Z</time>
      </trkpt>
      <trkpt lat="44.86668" lon="3.44803">
        <ele>1389</ele>
        <time>2025-09-18T09:29:55.000Z</time>
      </trkpt>
      <trkpt lat="44.86677" lon="3.44773">
        <ele>1387</ele>
        <time>2025-09-18T09:30:16.000Z</time>
      </trkpt>
      <trkpt lat="44.86687" lon="3.44744">
        <ele>1389</ele>
        <time>2025-09-18T09:30:35.000Z</time>
      </trkpt>
      <trkpt lat="44.86695" lon="3.44714">
        <ele>1391</ele>
        <time>2025-09-18T09:30:54.000Z</time>
      </trkpt>
      <trkpt lat="44.86705" lon="3.4468">
        <ele>1394</ele>
        <time>2025-09-18T09:31:18.000Z</time>
      </trkpt>
      <trkpt lat="44.86714" lon="3.44651">
        <ele>1397</ele>
        <time>2025-09-18T09:31:34.000Z</time>
      </trkpt>
      <trkpt lat="44.86723" lon="3.44622">
        <ele>1397</ele>
        <time>2025-09-18T09:31:49.000Z</time>
      </trkpt>
      <trkpt lat="44.86732" lon="3.44592">
        <ele>1399</ele>
        <time>2025-09-18T09:32:04.000Z</time>
      </trkpt>
      <trkpt lat="44.86741" lon="3.4456">
        <ele>1399</ele>
        <time>2025-09-18T09:32:47.000Z</time>
      </trkpt>
      <trkpt lat="44.86753" lon="3.44531">
        <ele>1401</ele>
        <time>2025-09-18T09:33:16.000Z</time>
      </trkpt>
      <trkpt lat="44.8676" lon="3.445">
        <ele>1404</ele>
        <time>2025-09-18T09:43:21.000Z</time>
      </trkpt>
      <trkpt lat="44.8677" lon="3.4447">
        <ele>1404</ele>
        <time>2025-09-18T09:43:43.000Z</time>
      </trkpt>
      <trkpt lat="44.8678" lon="3.4444">
        <ele>1404</ele>
        <time>2025-09-18T09:44:06.000Z</time>
      </trkpt>
      <trkpt lat="44.86791" lon="3.44412">
        <ele>1407</ele>
        <time>2025-09-18T09:44:27.000Z</time>
      </trkpt>
      <trkpt lat="44.86802" lon="3.44384">
        <ele>1405</ele>
        <time>2025-09-18T09:44:56.000Z</time>
      </trkpt>
      <trkpt lat="44.86814" lon="3.44355">
        <ele>1405</ele>
        <time>2025-09-18T09:45:24.000Z</time>
      </trkpt>
      <trkpt lat="44.86823" lon="3.44325">
        <ele>1404</ele>
        <time>2025-09-18T09:45:47.000Z</time>
      </trkpt>
      <trkpt lat="44.8683" lon="3.44294">
        <ele>1408</ele>
        <time>2025-09-18T09:46:05.000Z</time>
      </trkpt>
      <trkpt lat="44.86836" lon="3.44263">
        <ele>1408</ele>
        <time>2025-09-18T09:46:22.000Z</time>
      </trkpt>
      <trkpt lat="44.8684" lon="3.4423">
        <ele>1409</ele>
        <time>2025-09-18T09:46:39.000Z</time>
      </trkpt>
      <trkpt lat="44.86844" lon="3.44197">
        <ele>1412</ele>
        <time>2025-09-18T09:46:56.000Z</time>
      </trkpt>
      <trkpt lat="44.86849" lon="3.44166">
        <ele>1414</ele>
        <time>2025-09-18T09:47:18.000Z</time>
      </trkpt>
      <trkpt lat="44.86854" lon="3.44133">
        <ele>1414</ele>
        <time>2025-09-18T09:47:38.000Z</time>
      </trkpt>
      <trkpt lat="44.86857" lon="3.44102">
        <ele>1414</ele>
        <time>2025-09-18T09:47:59.000Z</time>
      </trkpt>
      <trkpt lat="44.86859" lon="3.4407">
        <ele>1411</ele>
        <time>2025-09-18T09:48:21.000Z</time>
      </trkpt>
      <trkpt lat="44.86861" lon="3.44037">
        <ele>1411</ele>
        <time>2025-09-18T09:48:41.000Z</time>
      </trkpt>
      <trkpt lat="44.86864" lon="3.44005">
        <ele>1410</ele>
        <time>2025-09-18T09:49:03.000Z</time>
      </trkpt>
      <trkpt lat="44.86866" lon="3.43973">
        <ele>1411</ele>
        <time>2025-09-18T09:49:23.000Z</time>
      </trkpt>
      <trkpt lat="44.86865" lon="3.43942">
        <ele>1416</ele>
        <time>2025-09-18T09:49:39.000Z</time>
      </trkpt>
      <trkpt lat="44.86865" lon="3.43909">
        <ele>1414</ele>
        <time>2025-09-18T09:50:03.000Z</time>
      </trkpt>
      <trkpt lat="44.8687" lon="3.43876">
        <ele>1414</ele>
        <time>2025-09-18T09:50:21.000Z</time>
      </trkpt>
      <trkpt lat="44.86868" lon="3.43841">
        <ele>1411</ele>
        <time>2025-09-18T09:50:46.000Z</time>
      </trkpt>
      <trkpt lat="44.8689" lon="3.4383">
        <ele>1413</ele>
        <time>2025-09-18T09:51:08.000Z</time>
      </trkpt>
      <trkpt lat="44.86913" lon="3.43826">
        <ele>1411</ele>
        <time>2025-09-18T09:51:31.000Z</time>
      </trkpt>
      <trkpt lat="44.86936" lon="3.43822">
        <ele>1410</ele>
        <time>2025-09-18T09:51:59.000Z</time>
      </trkpt>
      <trkpt lat="44.86958" lon="3.43817">
        <ele>1408</ele>
        <time>2025-09-18T09:52:22.000Z</time>
      </trkpt>
      <trkpt lat="44.86981" lon="3.43813">
        <ele>1407</ele>
        <time>2025-09-18T09:52:48.000Z</time>
      </trkpt>
      <trkpt lat="44.87003" lon="3.43805">
        <ele>1407</ele>
        <time>2025-09-18T09:53:18.000Z</time>
      </trkpt>
      <trkpt lat="44.87026" lon="3.43802">
        <ele>1409</ele>
        <time>2025-09-18T09:53:44.000Z</time>
      </trkpt>
      <trkpt lat="44.87048" lon="3.43795">
        <ele>1407</ele>
        <time>2025-09-18T09:54:10.000Z</time>
      </trkpt>
      <trkpt lat="44.87071" lon="3.43789">
        <ele>1409</ele>
        <time>2025-09-18T09:54:34.000Z</time>
      </trkpt>
      <trkpt lat="44.87093" lon="3.43782">
        <ele>1412</ele>
        <time>2025-09-18T09:55:01.000Z</time>
      </trkpt>
      <trkpt lat="44.87116" lon="3.4378">
        <ele>1416</ele>
        <time>2025-09-18T09:55:27.000Z</time>
      </trkpt>
      <trkpt lat="44.87138" lon="3.43773">
        <ele>1417</ele>
        <time>2025-09-18T09:59:59.000Z</time>
      </trkpt>
      <trkpt lat="44.87161" lon="3.4377">
        <ele>1417</ele>
        <time>2025-09-18T10:01:27.000Z</time>
      </trkpt>
      <trkpt lat="44.87184" lon="3.4376">
        <ele>1424</ele>
        <time>2025-09-18T10:01:55.000Z</time>
      </trkpt>
      <trkpt lat="44.87208" lon="3.4376">
        <ele>1421</ele>
        <time>2025-09-18T10:02:19.000Z</time>
      </trkpt>
      <trkpt lat="44.87231" lon="3.43753">
        <ele>1422</ele>
        <time>2025-09-18T10:02:44.000Z</time>
      </trkpt>
      <trkpt lat="44.87254" lon="3.43745">
        <ele>1421</ele>
        <time>2025-09-18T10:03:07.000Z</time>
      </trkpt>
      <trkpt lat="44.87277" lon="3.43741">
        <ele>1424</ele>
        <time>2025-09-18T10:03:29.000Z</time>
      </trkpt>
      <trkpt lat="44.87299" lon="3.43734">
        <ele>1421</ele>
        <time>2025-09-18T10:03:47.000Z</time>
      </trkpt>
      <trkpt lat="44.87322" lon="3.43731">
        <ele>1420</ele>
        <time>2025-09-18T10:04:11.000Z</time>
      </trkpt>
      <trkpt lat="44.87344" lon="3.43725">
        <ele>1423</ele>
        <time>2025-09-18T10:04:33.000Z</time>
      </trkpt>
      <trkpt lat="44.87366" lon="3.43714">
        <ele>1421</ele>
        <time>2025-09-18T10:04:54.000Z</time>
      </trkpt>
      <trkpt lat="44.8739" lon="3.43712">
        <ele>1421</ele>
        <time>2025-09-18T10:05:17.000Z</time>
      </trkpt>
      <trkpt lat="44.87412" lon="3.43706">
        <ele>1419</ele>
        <time>2025-09-18T10:05:39.000Z</time>
      </trkpt>
      <trkpt lat="44.87434" lon="3.43697">
        <ele>1419</ele>
        <time>2025-09-18T10:06:01.000Z</time>
      </trkpt>
      <trkpt lat="44.87458" lon="3.43692">
        <ele>1418</ele>
        <time>2025-09-18T10:06:26.000Z</time>
      </trkpt>
      <trkpt lat="44.8748" lon="3.43687">
        <ele>1420</ele>
        <time>2025-09-18T10:06:50.000Z</time>
      </trkpt>
      <trkpt lat="44.87501" lon="3.43673">
        <ele>1413</ele>
        <time>2025-09-18T10:07:24.000Z</time>
      </trkpt>
      <trkpt lat="44.87524" lon="3.43667">
        <ele>1413</ele>
        <time>2025-09-18T10:07:55.000Z</time>
      </trkpt>
      <trkpt lat="44.87546" lon="3.4366">
        <ele>1411</ele>
        <time>2025-09-18T10:08:28.000Z</time>
      </trkpt>
      <trkpt lat="44.87568" lon="3.43648">
        <ele>1412</ele>
        <time>2025-09-18T10:09:24.000Z</time>
      </trkpt>
      <trkpt lat="44.87591" lon="3.4365">
        <ele>1422</ele>
        <time>2025-09-18T10:09:58.000Z</time>
      </trkpt>
      <trkpt lat="44.87612" lon="3.43637">
        <ele>1418</ele>
        <time>2025-09-18T10:10:45.000Z</time>
      </trkpt>
      <trkpt lat="44.87635" lon="3.43628">
        <ele>1418</ele>
        <time>2025-09-18T10:11:14.000Z</time>
      </trkpt>
      <trkpt lat="44.87658" lon="3.43627">
        <ele>1421</ele>
        <time>2025-09-18T10:11:52.000Z</time>
      </trkpt>
      <trkpt lat="44.87681" lon="3.4362">
        <ele>1429</ele>
        <time>2025-09-18T10:12:39.000Z</time>
      </trkpt>
      <trkpt lat="44.87702" lon="3.43611">
        <ele>1433</ele>
        <time>2025-09-18T10:13:03.000Z</time>
      </trkpt>
      <trkpt lat="44.87725" lon="3.43604">
        <ele>1436</ele>
        <time>2025-09-18T10:13:29.000Z</time>
      </trkpt>
      <trkpt lat="44.87747" lon="3.43601">
        <ele>1442</ele>
        <time>2025-09-18T10:14:02.000Z</time>
      </trkpt>
      <trkpt lat="44.8777" lon="3.436">
        <ele>1448</ele>
        <time>2025-09-18T10:14:36.000Z</time>
      </trkpt>
      <trkpt lat="44.87793" lon="3.43602">
        <ele>1453</ele>
        <time>2025-09-18T10:15:17.000Z</time>
      </trkpt>
      <trkpt lat="44.87815" lon="3.43597">
        <ele>1455</ele>
        <time>2025-09-18T10:15:47.000Z</time>
      </trkpt>
      <trkpt lat="44.87838" lon="3.43591">
        <ele>1461</ele>
        <time>2025-09-18T10:16:11.000Z</time>
      </trkpt>
      <trkpt lat="44.87859" lon="3.43578">
        <ele>1468</ele>
        <time>2025-09-18T10:16:40.000Z</time>
      </trkpt>
      <trkpt lat="44.87882" lon="3.43574">
        <ele>1470</ele>
        <time>2025-09-18T10:17:13.000Z</time>
      </trkpt>
      <trkpt lat="44.879" lon="3.43553">
        <ele>1473</ele>
        <time>2025-09-18T10:17:48.000Z</time>
      </trkpt>
      <trkpt lat="44.87914" lon="3.43578">
        <ele>1479</ele>
        <time>2025-09-18T10:19:12.000Z</time>
      </trkpt>
      <trkpt lat="44.87932" lon="3.43598">
        <ele>1483</ele>
        <time>2025-09-18T10:19:46.000Z</time>
      </trkpt>
      <trkpt lat="44.87954" lon="3.43591">
        <ele>1485</ele>
        <time>2025-09-18T10:29:51.000Z</time>
      </trkpt>
      <trkpt lat="44.87977" lon="3.4359">
        <ele>1486</ele>
        <time>2025-09-18T11:28:52.000Z</time>
      </trkpt>
      <trkpt lat="44.88" lon="3.43591">
        <ele>1486</ele>
        <time>2025-09-18T11:30:58.000Z</time>
      </trkpt>
      <trkpt lat="44.88024" lon="3.43586">
        <ele>1484</ele>
        <time>2025-09-18T11:31:25.000Z</time>
      </trkpt>
      <trkpt lat="44.88045" lon="3.43576">
        <ele>1478</ele>
        <time>2025-09-18T11:32:10.000Z</time>
      </trkpt>
      <trkpt lat="44.88061" lon="3.43551">
        <ele>1480</ele>
        <time>2025-09-18T11:32:36.000Z</time>
      </trkpt>
      <trkpt lat="44.88077" lon="3.43528">
        <ele>1476</ele>
        <time>2025-09-18T11:32:54.000Z</time>
      </trkpt>
      <trkpt lat="44.88093" lon="3.43506">
        <ele>1476</ele>
        <time>2025-09-18T11:33:10.000Z</time>
      </trkpt>
      <trkpt lat="44.88116" lon="3.4351">
        <ele>1477</ele>
        <time>2025-09-18T11:33:30.000Z</time>
      </trkpt>
      <trkpt lat="44.88138" lon="3.43499">
        <ele>1473</ele>
        <time>2025-09-18T11:33:51.000Z</time>
      </trkpt>
      <trkpt lat="44.88156" lon="3.43479">
        <ele>1472</ele>
        <time>2025-09-18T11:34:13.000Z</time>
      </trkpt>
      <trkpt lat="44.88175" lon="3.43459">
        <ele>1472</ele>
        <time>2025-09-18T11:34:37.000Z</time>
      </trkpt>
      <trkpt lat="44.8819" lon="3.43434">
        <ele>1471</ele>
        <time>2025-09-18T11:34:59.000Z</time>
      </trkpt>
      <trkpt lat="44.88212" lon="3.43431">
        <ele>1469</ele>
        <time>2025-09-18T11:35:23.000Z</time>
      </trkpt>
      <trkpt lat="44.88234" lon="3.4342">
        <ele>1470</ele>
        <time>2025-09-18T11:35:45.000Z</time>
      </trkpt>
      <trkpt lat="44.88257" lon="3.43426">
        <ele>1469</ele>
        <time>2025-09-18T11:36:09.000Z</time>
      </trkpt>
      <trkpt lat="44.88273" lon="3.43402">
        <ele>1469</ele>
        <time>2025-09-18T11:36:33.000Z</time>
      </trkpt>
      <trkpt lat="44.88291" lon="3.43381">
        <ele>1474</ele>
        <time>2025-09-18T11:36:56.000Z</time>
      </trkpt>
      <trkpt lat="44.88307" lon="3.43359">
        <ele>1472</ele>
        <time>2025-09-18T11:37:19.000Z</time>
      </trkpt>
      <trkpt lat="44.88322" lon="3.43334">
        <ele>1473</ele>
        <time>2025-09-18T11:37:40.000Z</time>
      </trkpt>
      <trkpt lat="44.88344" lon="3.4333">
        <ele>1475</ele>
        <time>2025-09-18T11:38:07.000Z</time>
      </trkpt>
      <trkpt lat="44.88364" lon="3.43314">
        <ele>1479</ele>
        <time>2025-09-18T11:38:30.000Z</time>
      </trkpt>
      <trkpt lat="44.88381" lon="3.43294">
        <ele>1479</ele>
        <time>2025-09-18T11:38:54.000Z</time>
      </trkpt>
      <trkpt lat="44.88404" lon="3.43283">
        <ele>1476</ele>
        <time>2025-09-18T11:39:17.000Z</time>
      </trkpt>
      <trkpt lat="44.88423" lon="3.43266">
        <ele>1478</ele>
        <time>2025-09-18T11:39:39.000Z</time>
      </trkpt>
      <trkpt lat="44.88442" lon="3.43248">
        <ele>1480</ele>
        <time>2025-09-18T11:40:12.000Z</time>
      </trkpt>
      <trkpt lat="44.88456" lon="3.43222">
        <ele>1480</ele>
        <time>2025-09-18T11:40:44.000Z</time>
      </trkpt>
      <trkpt lat="44.8846" lon="3.43191">
        <ele>1480</ele>
        <time>2025-09-18T11:41:26.000Z</time>
      </trkpt>
      <trkpt lat="44.88455" lon="3.43222">
        <ele>1484</ele>
        <time>2025-09-18T11:51:29.000Z</time>
      </trkpt>
      <trkpt lat="44.88471" lon="3.43245">
        <ele>1485</ele>
        <time>2025-09-18T11:51:57.000Z</time>
      </trkpt>
      <trkpt lat="44.88494" lon="3.43252">
        <ele>1487</ele>
        <time>2025-09-18T11:54:00.000Z</time>
      </trkpt>
      <trkpt lat="44.88513" lon="3.43271">
        <ele>1486</ele>
        <time>2025-09-18T11:54:35.000Z</time>
      </trkpt>
      <trkpt lat="44.88525" lon="3.43298">
        <ele>1483</ele>
        <time>2025-09-18T11:55:03.000Z</time>
      </trkpt>
      <trkpt lat="44.88542" lon="3.43321">
        <ele>1479</ele>
        <time>2025-09-18T11:55:28.000Z</time>
      </trkpt>
      <trkpt lat="44.88562" lon="3.43338">
        <ele>1478</ele>
        <time>2025-09-18T11:55:49.000Z</time>
      </trkpt>
      <trkpt lat="44.88576" lon="3.43364">
        <ele>1473</ele>
        <time>2025-09-18T11:56:12.000Z</time>
      </trkpt>
      <trkpt lat="44.88599" lon="3.43371">
        <ele>1467</ele>
        <time>2025-09-18T11:56:33.000Z</time>
      </trkpt>
      <trkpt lat="44.88621" lon="3.4338">
        <ele>1463</ele>
        <time>2025-09-18T11:56:59.000Z</time>
      </trkpt>
      <trkpt lat="44.88644" lon="3.43376">
        <ele>1455</ele>
        <time>2025-09-18T11:57:21.000Z</time>
      </trkpt>
      <trkpt lat="44.88667" lon="3.43374">
        <ele>1452</ele>
        <time>2025-09-18T11:57:54.000Z</time>
      </trkpt>
      <trkpt lat="44.8868" lon="3.434">
        <ele>1447</ele>
        <time>2025-09-18T11:58:22.000Z</time>
      </trkpt>
      <trkpt lat="44.88687" lon="3.4343">
        <ele>1443</ele>
        <time>2025-09-18T11:58:45.000Z</time>
      </trkpt>
      <trkpt lat="44.88694" lon="3.43461">
        <ele>1436</ele>
        <time>2025-09-18T11:59:14.000Z</time>
      </trkpt>
      <trkpt lat="44.88701" lon="3.43493">
        <ele>1434</ele>
        <time>2025-09-18T11:59:40.000Z</time>
      </trkpt>
      <trkpt lat="44.88708" lon="3.43523">
        <ele>1426</ele>
        <time>2025-09-18T12:00:09.000Z</time>
      </trkpt>
      <trkpt lat="44.88713" lon="3.43554">
        <ele>1422</ele>
        <time>2025-09-18T12:00:35.000Z</time>
      </trkpt>
      <trkpt lat="44.88721" lon="3.43584">
        <ele>1419</ele>
        <time>2025-09-18T12:00:58.000Z</time>
      </trkpt>
      <trkpt lat="44.88725" lon="3.43616">
        <ele>1415</ele>
        <time>2025-09-18T12:01:23.000Z</time>
      </trkpt>
      <trkpt lat="44.88719" lon="3.43647">
        <ele>1410</ele>
        <time>2025-09-18T12:01:50.000Z</time>
      </trkpt>
      <trkpt lat="44.88723" lon="3.43681">
        <ele>1410</ele>
        <time>2025-09-18T12:02:17.000Z</time>
      </trkpt>
      <trkpt lat="44.88713" lon="3.4371">
        <ele>1404</ele>
        <time>2025-09-18T12:03:08.000Z</time>
      </trkpt>
      <trkpt lat="44.88692" lon="3.43723">
        <ele>1406</ele>
        <time>2025-09-18T12:03:32.000Z</time>
      </trkpt>
      <trkpt lat="44.88669" lon="3.43737">
        <ele>1410</ele>
        <time>2025-09-18T12:03:55.000Z</time>
      </trkpt>
      <trkpt lat="44.88647" lon="3.43747">
        <ele>1415</ele>
        <time>2025-09-18T12:04:20.000Z</time>
      </trkpt>
      <trkpt lat="44.88626" lon="3.43761">
        <ele>1414</ele>
        <time>2025-09-18T12:04:42.000Z</time>
      </trkpt>
      <trkpt lat="44.88606" lon="3.43776">
        <ele>1412</ele>
        <time>2025-09-18T12:05:04.000Z</time>
      </trkpt>
      <trkpt lat="44.88585" lon="3.43789">
        <ele>1415</ele>
        <time>2025-09-18T12:05:26.000Z</time>
      </trkpt>
      <trkpt lat="44.88564" lon="3.43802">
        <ele>1417</ele>
        <time>2025-09-18T12:05:47.000Z</time>
      </trkpt>
      <trkpt lat="44.88544" lon="3.43816">
        <ele>1417</ele>
        <time>2025-09-18T12:06:09.000Z</time>
      </trkpt>
      <trkpt lat="44.88523" lon="3.43831">
        <ele>1420</ele>
        <time>2025-09-18T12:06:31.000Z</time>
      </trkpt>
      <trkpt lat="44.88503" lon="3.43845">
        <ele>1418</ele>
        <time>2025-09-18T12:06:54.000Z</time>
      </trkpt>
      <trkpt lat="44.88481" lon="3.43858">
        <ele>1417</ele>
        <time>2025-09-18T12:07:14.000Z</time>
      </trkpt>
      <trkpt lat="44.88461" lon="3.43873">
        <ele>1418</ele>
        <time>2025-09-18T12:07:34.000Z</time>
      </trkpt>
      <trkpt lat="44.8844" lon="3.43885">
        <ele>1419</ele>
        <time>2025-09-18T12:07:53.000Z</time>
      </trkpt>
      <trkpt lat="44.88419" lon="3.439">
        <ele>1420</ele>
        <time>2025-09-18T12:08:11.000Z</time>
      </trkpt>
      <trkpt lat="44.88399" lon="3.43916">
        <ele>1420</ele>
        <time>2025-09-18T12:08:30.000Z</time>
      </trkpt>
      <trkpt lat="44.88377" lon="3.43931">
        <ele>1422</ele>
        <time>2025-09-18T12:08:50.000Z</time>
      </trkpt>
      <trkpt lat="44.88356" lon="3.43943">
        <ele>1424</ele>
        <time>2025-09-18T12:09:10.000Z</time>
      </trkpt>
      <trkpt lat="44.88335" lon="3.43958">
        <ele>1423</ele>
        <time>2025-09-18T12:09:30.000Z</time>
      </trkpt>
      <trkpt lat="44.88314" lon="3.43974">
        <ele>1421</ele>
        <time>2025-09-18T12:09:50.000Z</time>
      </trkpt>
      <trkpt lat="44.88295" lon="3.43992">
        <ele>1421</ele>
        <time>2025-09-18T12:10:08.000Z</time>
      </trkpt>
      <trkpt lat="44.88275" lon="3.44006">
        <ele>1423</ele>
        <time>2025-09-18T12:10:26.000Z</time>
      </trkpt>
      <trkpt lat="44.88254" lon="3.44023">
        <ele>1426</ele>
        <time>2025-09-18T12:10:44.000Z</time>
      </trkpt>
      <trkpt lat="44.88233" lon="3.44037">
        <ele>1424</ele>
        <time>2025-09-18T12:11:03.000Z</time>
      </trkpt>
      <trkpt lat="44.88211" lon="3.44048">
        <ele>1425</ele>
        <time>2025-09-18T12:11:23.000Z</time>
      </trkpt>
      <trkpt lat="44.88189" lon="3.44059">
        <ele>1425</ele>
        <time>2025-09-18T12:11:42.000Z</time>
      </trkpt>
      <trkpt lat="44.88167" lon="3.44068">
        <ele>1426</ele>
        <time>2025-09-18T12:12:00.000Z</time>
      </trkpt>
      <trkpt lat="44.88145" lon="3.44077">
        <ele>1428</ele>
        <time>2025-09-18T12:12:19.000Z</time>
      </trkpt>
      <trkpt lat="44.88123" lon="3.44086">
        <ele>1426</ele>
        <time>2025-09-18T12:12:37.000Z</time>
      </trkpt>
      <trkpt lat="44.881" lon="3.44093">
        <ele>1427</ele>
        <time>2025-09-18T12:12:57.000Z</time>
      </trkpt>
      <trkpt lat="44.88077" lon="3.441">
        <ele>1426</ele>
        <time>2025-09-18T12:13:17.000Z</time>
      </trkpt>
      <trkpt lat="44.88054" lon="3.44105">
        <ele>1425</ele>
        <time>2025-09-18T12:13:35.000Z</time>
      </trkpt>
      <trkpt lat="44.88031" lon="3.44109">
        <ele>1425</ele>
        <time>2025-09-18T12:13:54.000Z</time>
      </trkpt>
      <trkpt lat="44.88008" lon="3.44111">
        <ele>1424</ele>
        <time>2025-09-18T12:14:13.000Z</time>
      </trkpt>
      <trkpt lat="44.87985" lon="3.44114">
        <ele>1419</ele>
        <time>2025-09-18T12:14:32.000Z</time>
      </trkpt>
      <trkpt lat="44.87963" lon="3.44117">
        <ele>1421</ele>
        <time>2025-09-18T12:14:49.000Z</time>
      </trkpt>
      <trkpt lat="44.8794" lon="3.44119">
        <ele>1420</ele>
        <time>2025-09-18T12:15:08.000Z</time>
      </trkpt>
      <trkpt lat="44.87944" lon="3.4415">
        <ele>1416</ele>
        <time>2025-09-18T12:16:14.000Z</time>
      </trkpt>
      <trkpt lat="44.87966" lon="3.44158">
        <ele>1419</ele>
        <time>2025-09-18T12:16:29.000Z</time>
      </trkpt>
      <trkpt lat="44.87942" lon="3.4415">
        <ele>1419</ele>
        <time>2025-09-18T12:17:42.000Z</time>
      </trkpt>
      <trkpt lat="44.8794" lon="3.44182">
        <ele>1416</ele>
        <time>2025-09-18T12:23:31.000Z</time>
      </trkpt>
      <trkpt lat="44.8794" lon="3.44215">
        <ele>1415</ele>
        <time>2025-09-18T12:23:51.000Z</time>
      </trkpt>
      <trkpt lat="44.87941" lon="3.44247">
        <ele>1413</ele>
        <time>2025-09-18T12:24:13.000Z</time>
      </trkpt>
      <trkpt lat="44.87941" lon="3.4428">
        <ele>1412</ele>
        <time>2025-09-18T12:24:31.000Z</time>
      </trkpt>
      <trkpt lat="44.87941" lon="3.44312">
        <ele>1411</ele>
        <time>2025-09-18T12:24:52.000Z</time>
      </trkpt>
      <trkpt lat="44.87942" lon="3.44344">
        <ele>1408</ele>
        <time>2025-09-18T12:25:19.000Z</time>
      </trkpt>
      <trkpt lat="44.87946" lon="3.44375">
        <ele>1405</ele>
        <time>2025-09-18T12:26:09.000Z</time>
      </trkpt>
      <trkpt lat="44.8795" lon="3.44407">
        <ele>1404</ele>
        <time>2025-09-18T12:26:29.000Z</time>
      </trkpt>
      <trkpt lat="44.87956" lon="3.44437">
        <ele>1403</ele>
        <time>2025-09-18T12:26:57.000Z</time>
      </trkpt>
      <trkpt lat="44.87959" lon="3.44471">
        <ele>1401</ele>
        <time>2025-09-18T12:27:16.000Z</time>
      </trkpt>
      <trkpt lat="44.87968" lon="3.44502">
        <ele>1400</ele>
        <time>2025-09-18T12:27:35.000Z</time>
      </trkpt>
      <trkpt lat="44.8798" lon="3.44529">
        <ele>1399</ele>
        <time>2025-09-18T12:27:58.000Z</time>
      </trkpt>
      <trkpt lat="44.8799" lon="3.44558">
        <ele>1395</ele>
        <time>2025-09-18T12:28:16.000Z</time>
      </trkpt>
      <trkpt lat="44.87997" lon="3.44589">
        <ele>1396</ele>
        <time>2025-09-18T12:28:35.000Z</time>
      </trkpt>
      <trkpt lat="44.87999" lon="3.4462">
        <ele>1396</ele>
        <time>2025-09-18T12:28:52.000Z</time>
      </trkpt>
      <trkpt lat="44.87996" lon="3.44653">
        <ele>1397</ele>
        <time>2025-09-18T12:29:10.000Z</time>
      </trkpt>
      <trkpt lat="44.87991" lon="3.44684">
        <ele>1395</ele>
        <time>2025-09-18T12:29:30.000Z</time>
      </trkpt>
      <trkpt lat="44.87985" lon="3.44716">
        <ele>1394</ele>
        <time>2025-09-18T12:29:49.000Z</time>
      </trkpt>
      <trkpt lat="44.87974" lon="3.44754">
        <ele>1397</ele>
        <time>2025-09-18T12:30:14.000Z</time>
      </trkpt>
      <trkpt lat="44.87966" lon="3.44785">
        <ele>1388</ele>
        <time>2025-09-18T12:30:36.000Z</time>
      </trkpt>
      <trkpt lat="44.87958" lon="3.44815">
        <ele>1381</ele>
        <time>2025-09-18T12:31:07.000Z</time>
      </trkpt>
      <trkpt lat="44.8795" lon="3.44845">
        <ele>1385</ele>
        <time>2025-09-18T12:31:23.000Z</time>
      </trkpt>
      <trkpt lat="44.8794" lon="3.44874">
        <ele>1385</ele>
        <time>2025-09-18T12:31:51.000Z</time>
      </trkpt>
      <trkpt lat="44.8789" lon="3.44988">
        <ele>1387</ele>
        <time>2025-09-18T12:32:20.000Z</time>
      </trkpt>
      <trkpt lat="44.87911" lon="3.45014">
        <ele>1387</ele>
        <time>2025-09-18T12:32:25.000Z</time>
      </trkpt>
      <trkpt lat="44.87938" lon="3.45016">
        <ele>1388</ele>
        <time>2025-09-18T12:32:31.000Z</time>
      </trkpt>
      <trkpt lat="44.8796" lon="3.45018">
        <ele>1387</ele>
        <time>2025-09-18T12:32:37.000Z</time>
      </trkpt>
      <trkpt lat="44.88009" lon="3.44983">
        <ele>1388</ele>
        <time>2025-09-18T12:32:41.000Z</time>
      </trkpt>
      <trkpt lat="44.88077" lon="3.44981">
        <ele>1390</ele>
        <time>2025-09-18T12:33:02.000Z</time>
      </trkpt>
      <trkpt lat="44.88097" lon="3.45002">
        <ele>1394</ele>
        <time>2025-09-18T12:33:12.000Z</time>
      </trkpt>
      <trkpt lat="44.88116" lon="3.45021">
        <ele>1395</ele>
        <time>2025-09-18T12:33:28.000Z</time>
      </trkpt>
      <trkpt lat="44.88131" lon="3.45045">
        <ele>1393</ele>
        <time>2025-09-18T12:33:48.000Z</time>
      </trkpt>
      <trkpt lat="44.88143" lon="3.45071">
        <ele>1393</ele>
        <time>2025-09-18T12:34:03.000Z</time>
      </trkpt>
      <trkpt lat="44.88159" lon="3.45096">
        <ele>1392</ele>
        <time>2025-09-18T12:34:25.000Z</time>
      </trkpt>
      <trkpt lat="44.88175" lon="3.45119">
        <ele>1389</ele>
        <time>2025-09-18T12:34:45.000Z</time>
      </trkpt>
      <trkpt lat="44.8818" lon="3.4515">
        <ele>1386</ele>
        <time>2025-09-18T12:35:04.000Z</time>
      </trkpt>
      <trkpt lat="44.88183" lon="3.45183">
        <ele>1383</ele>
        <time>2025-09-18T12:36:09.000Z</time>
      </trkpt>
      <trkpt lat="44.88194" lon="3.4521">
        <ele>1382</ele>
        <time>2025-09-18T12:36:28.000Z</time>
      </trkpt>
      <trkpt lat="44.88189" lon="3.45243">
        <ele>1379</ele>
        <time>2025-09-18T12:36:51.000Z</time>
      </trkpt>
      <trkpt lat="44.88201" lon="3.45271">
        <ele>1376</ele>
        <time>2025-09-18T12:37:10.000Z</time>
      </trkpt>
      <trkpt lat="44.88202" lon="3.45306">
        <ele>1374</ele>
        <time>2025-09-18T12:37:31.000Z</time>
      </trkpt>
      <trkpt lat="44.88207" lon="3.45337">
        <ele>1370</ele>
        <time>2025-09-18T12:38:01.000Z</time>
      </trkpt>
      <trkpt lat="44.88219" lon="3.45365">
        <ele>1368</ele>
        <time>2025-09-18T12:38:26.000Z</time>
      </trkpt>
      <trkpt lat="44.88229" lon="3.45393">
        <ele>1364</ele>
        <time>2025-09-18T12:38:52.000Z</time>
      </trkpt>
      <trkpt lat="44.88238" lon="3.45424">
        <ele>1357</ele>
        <time>2025-09-18T12:39:11.000Z</time>
      </trkpt>
      <trkpt lat="44.88246" lon="3.45454">
        <ele>1355</ele>
        <time>2025-09-18T12:39:33.000Z</time>
      </trkpt>
      <trkpt lat="44.88254" lon="3.45485">
        <ele>1349</ele>
        <time>2025-09-18T12:40:00.000Z</time>
      </trkpt>
      <trkpt lat="44.88268" lon="3.4551">
        <ele>1342</ele>
        <time>2025-09-18T12:40:28.000Z</time>
      </trkpt>
      <trkpt lat="44.88278" lon="3.45539">
        <ele>1337</ele>
        <time>2025-09-18T12:40:54.000Z</time>
      </trkpt>
      <trkpt lat="44.88284" lon="3.45569">
        <ele>1333</ele>
        <time>2025-09-18T12:41:14.000Z</time>
      </trkpt>
      <trkpt lat="44.88297" lon="3.45596">
        <ele>1330</ele>
        <time>2025-09-18T12:41:55.000Z</time>
      </trkpt>
      <trkpt lat="44.8831" lon="3.45623">
        <ele>1328</ele>
        <time>2025-09-18T12:42:17.000Z</time>
      </trkpt>
      <trkpt lat="44.88322" lon="3.45651">
        <ele>1327</ele>
        <time>2025-09-18T12:42:41.000Z</time>
      </trkpt>
      <trkpt lat="44.88329" lon="3.45681">
        <ele>1326</ele>
        <time>2025-09-18T12:43:03.000Z</time>
      </trkpt>
      <trkpt lat="44.8834" lon="3.45709">
        <ele>1330</ele>
        <time>2025-09-18T12:43:23.000Z</time>
      </trkpt>
      <trkpt lat="44.88357" lon="3.45734">
        <ele>1333</ele>
        <time>2025-09-18T12:43:51.000Z</time>
      </trkpt>
      <trkpt lat="44.88378" lon="3.45748">
        <ele>1335</ele>
        <time>2025-09-18T12:44:08.000Z</time>
      </trkpt>
      <trkpt lat="44.88383" lon="3.45781">
        <ele>1338</ele>
        <time>2025-09-18T12:44:29.000Z</time>
      </trkpt>
      <trkpt lat="44.88385" lon="3.45813">
        <ele>1340</ele>
        <time>2025-09-18T12:44:56.000Z</time>
      </trkpt>
      <trkpt lat="44.88395" lon="3.45842">
        <ele>1341</ele>
        <time>2025-09-18T12:45:21.000Z</time>
      </trkpt>
      <trkpt lat="44.88411" lon="3.45866">
        <ele>1344</ele>
        <time>2025-09-18T12:45:39.000Z</time>
      </trkpt>
      <trkpt lat="44.88413" lon="3.45898">
        <ele>1341</ele>
        <time>2025-09-18T12:45:57.000Z</time>
      </trkpt>
      <trkpt lat="44.88421" lon="3.45927">
        <ele>1340</ele>
        <time>2025-09-18T12:46:47.000Z</time>
      </trkpt>
      <trkpt lat="44.8843" lon="3.45957">
        <ele>1337</ele>
        <time>2025-09-18T12:52:39.000Z</time>
      </trkpt>
      <trkpt lat="44.88434" lon="3.4599">
        <ele>1332</ele>
        <time>2025-09-18T12:53:04.000Z</time>
      </trkpt>
      <trkpt lat="44.88433" lon="3.46022">
        <ele>1329</ele>
        <time>2025-09-18T12:53:24.000Z</time>
      </trkpt>
      <trkpt lat="44.88435" lon="3.46054">
        <ele>1322</ele>
        <time>2025-09-18T12:53:43.000Z</time>
      </trkpt>
      <trkpt lat="44.88417" lon="3.46074">
        <ele>1318</ele>
        <time>2025-09-18T12:54:04.000Z</time>
      </trkpt>
      <trkpt lat="44.88429" lon="3.46105">
        <ele>1315</ele>
        <time>2025-09-18T12:54:29.000Z</time>
      </trkpt>
      <trkpt lat="44.88451" lon="3.46117">
        <ele>1311</ele>
        <time>2025-09-18T12:54:49.000Z</time>
      </trkpt>
      <trkpt lat="44.88468" lon="3.4614">
        <ele>1308</ele>
        <time>2025-09-18T12:55:12.000Z</time>
      </trkpt>
      <trkpt lat="44.88487" lon="3.46159">
        <ele>1305</ele>
        <time>2025-09-18T12:55:35.000Z</time>
      </trkpt>
      <trkpt lat="44.88502" lon="3.46184">
        <ele>1305</ele>
        <time>2025-09-18T12:55:57.000Z</time>
      </trkpt>
      <trkpt lat="44.88518" lon="3.46208">
        <ele>1303</ele>
        <time>2025-09-18T12:56:15.000Z</time>
      </trkpt>
      <trkpt lat="44.88529" lon="3.46238">
        <ele>1297</ele>
        <time>2025-09-18T12:56:38.000Z</time>
      </trkpt>
      <trkpt lat="44.88536" lon="3.46271">
        <ele>1296</ele>
        <time>2025-09-18T12:57:04.000Z</time>
      </trkpt>
      <trkpt lat="44.88547" lon="3.46299">
        <ele>1293</ele>
        <time>2025-09-18T12:57:22.000Z</time>
      </trkpt>
      <trkpt lat="44.88553" lon="3.46331">
        <ele>1293</ele>
        <time>2025-09-18T12:57:43.000Z</time>
      </trkpt>
      <trkpt lat="44.88562" lon="3.46361">
        <ele>1287</ele>
        <time>2025-09-18T12:58:08.000Z</time>
      </trkpt>
      <trkpt lat="44.88554" lon="3.46391">
        <ele>1285</ele>
        <time>2025-09-18T12:58:22.000Z</time>
      </trkpt>
      <trkpt lat="44.88533" lon="3.46402">
        <ele>1281</ele>
        <time>2025-09-18T12:58:49.000Z</time>
      </trkpt>
      <trkpt lat="44.8854" lon="3.46436">
        <ele>1277</ele>
        <time>2025-09-18T13:00:50.000Z</time>
      </trkpt>
      <trkpt lat="44.8856" lon="3.4645">
        <ele>1275</ele>
        <time>2025-09-18T13:01:11.000Z</time>
      </trkpt>
      <trkpt lat="44.88555" lon="3.46481">
        <ele>1272</ele>
        <time>2025-09-18T13:01:33.000Z</time>
      </trkpt>
      <trkpt lat="44.8854" lon="3.46505">
        <ele>1267</ele>
        <time>2025-09-18T13:01:55.000Z</time>
      </trkpt>
      <trkpt lat="44.88527" lon="3.46532">
        <ele>1264</ele>
        <time>2025-09-18T13:02:19.000Z</time>
      </trkpt>
      <trkpt lat="44.88534" lon="3.46563">
        <ele>1261</ele>
        <time>2025-09-18T13:02:39.000Z</time>
      </trkpt>
      <trkpt lat="44.88529" lon="3.46594">
        <ele>1258</ele>
        <time>2025-09-18T13:02:58.000Z</time>
      </trkpt>
      <trkpt lat="44.8852" lon="3.46625">
        <ele>1256</ele>
        <time>2025-09-18T13:03:19.000Z</time>
      </trkpt>
      <trkpt lat="44.88523" lon="3.46657">
        <ele>1254</ele>
        <time>2025-09-18T13:03:40.000Z</time>
      </trkpt>
      <trkpt lat="44.88526" lon="3.4669">
        <ele>1253</ele>
        <time>2025-09-18T13:03:59.000Z</time>
      </trkpt>
      <trkpt lat="44.88517" lon="3.4672">
        <ele>1252</ele>
        <time>2025-09-18T13:15:54.000Z</time>
      </trkpt>
      <trkpt lat="44.88509" lon="3.46751">
        <ele>1249</ele>
        <time>2025-09-18T13:16:28.000Z</time>
      </trkpt>
      <trkpt lat="44.88505" lon="3.46785">
        <ele>1247</ele>
        <time>2025-09-18T13:16:53.000Z</time>
      </trkpt>
      <trkpt lat="44.88492" lon="3.46812">
        <ele>1244</ele>
        <time>2025-09-18T13:17:25.000Z</time>
      </trkpt>
      <trkpt lat="44.8849" lon="3.46844">
        <ele>1243</ele>
        <time>2025-09-18T13:17:43.000Z</time>
      </trkpt>
      <trkpt lat="44.88486" lon="3.46876">
        <ele>1240</ele>
        <time>2025-09-18T13:18:06.000Z</time>
      </trkpt>
      <trkpt lat="44.88481" lon="3.46909">
        <ele>1237</ele>
        <time>2025-09-18T13:18:28.000Z</time>
      </trkpt>
      <trkpt lat="44.88474" lon="3.4694">
        <ele>1236</ele>
        <time>2025-09-18T13:18:52.000Z</time>
      </trkpt>
      <trkpt lat="44.88462" lon="3.46967">
        <ele>1234</ele>
        <time>2025-09-18T13:19:13.000Z</time>
      </trkpt>
      <trkpt lat="44.88448" lon="3.46992">
        <ele>1231</ele>
        <time>2025-09-18T13:19:37.000Z</time>
      </trkpt>
      <trkpt lat="44.88438" lon="3.47022">
        <ele>1230</ele>
        <time>2025-09-18T13:19:59.000Z</time>
      </trkpt>
      <trkpt lat="44.8842" lon="3.47041">
        <ele>1229</ele>
        <time>2025-09-18T13:20:16.000Z</time>
      </trkpt>
      <trkpt lat="44.88398" lon="3.47053">
        <ele>1229</ele>
        <time>2025-09-18T13:20:36.000Z</time>
      </trkpt>
      <trkpt lat="44.88376" lon="3.47054">
        <ele>1225</ele>
        <time>2025-09-18T13:20:56.000Z</time>
      </trkpt>
      <trkpt lat="44.88353" lon="3.4705">
        <ele>1223</ele>
        <time>2025-09-18T13:21:16.000Z</time>
      </trkpt>
      <trkpt lat="44.8833" lon="3.47043">
        <ele>1221</ele>
        <time>2025-09-18T13:21:39.000Z</time>
      </trkpt>
      <trkpt lat="44.88317" lon="3.4707">
        <ele>1222</ele>
        <time>2025-09-18T13:21:57.000Z</time>
      </trkpt>
      <trkpt lat="44.88294" lon="3.47069">
        <ele>1216</ele>
        <time>2025-09-18T13:22:21.000Z</time>
      </trkpt>
      <trkpt lat="44.88272" lon="3.47057">
        <ele>1217</ele>
        <time>2025-09-18T13:22:44.000Z</time>
      </trkpt>
      <trkpt lat="44.88255" lon="3.47035">
        <ele>1213</ele>
        <time>2025-09-18T13:23:07.000Z</time>
      </trkpt>
      <trkpt lat="44.88235" lon="3.47013">
        <ele>1211</ele>
        <time>2025-09-18T13:23:30.000Z</time>
      </trkpt>
      <trkpt lat="44.8823" lon="3.46981">
        <ele>1214</ele>
        <time>2025-09-18T13:25:49.000Z</time>
      </trkpt>
      <trkpt lat="44.88212" lon="3.4696">
        <ele>1219</ele>
        <time>2025-09-18T13:26:13.000Z</time>
      </trkpt>
      <trkpt lat="44.8819" lon="3.46948">
        <ele>1212</ele>
        <time>2025-09-18T13:26:33.000Z</time>
      </trkpt>
      <trkpt lat="44.88168" lon="3.4694">
        <ele>1214</ele>
        <time>2025-09-18T13:26:54.000Z</time>
      </trkpt>
      <trkpt lat="44.88153" lon="3.46966">
        <ele>1212</ele>
        <time>2025-09-18T13:27:22.000Z</time>
      </trkpt>
      <trkpt lat="44.88136" lon="3.46988">
        <ele>1211</ele>
        <time>2025-09-18T13:27:50.000Z</time>
      </trkpt>
      <trkpt lat="44.88119" lon="3.47008">
        <ele>1210</ele>
        <time>2025-09-18T13:28:11.000Z</time>
      </trkpt>
      <trkpt lat="44.88101" lon="3.47027">
        <ele>1209</ele>
        <time>2025-09-18T13:28:35.000Z</time>
      </trkpt>
      <trkpt lat="44.8809" lon="3.47056">
        <ele>1212</ele>
        <time>2025-09-18T13:29:12.000Z</time>
      </trkpt>
      <trkpt lat="44.88082" lon="3.47087">
        <ele>1209</ele>
        <time>2025-09-18T13:29:29.000Z</time>
      </trkpt>
      <trkpt lat="44.88077" lon="3.47118">
        <ele>1211</ele>
        <time>2025-09-18T13:29:50.000Z</time>
      </trkpt>
      <trkpt lat="44.88068" lon="3.47148">
        <ele>1208</ele>
        <time>2025-09-18T13:30:13.000Z</time>
      </trkpt>
      <trkpt lat="44.88046" lon="3.47157">
        <ele>1213</ele>
        <time>2025-09-18T13:30:36.000Z</time>
      </trkpt>
      <trkpt lat="44.88027" lon="3.47177">
        <ele>1213</ele>
        <time>2025-09-18T13:31:34.000Z</time>
      </trkpt>
      <trkpt lat="44.88015" lon="3.47205">
        <ele>1214</ele>
        <time>2025-09-18T13:31:51.000Z</time>
      </trkpt>
      <trkpt lat="44.88003" lon="3.47235">
        <ele>1215</ele>
        <time>2025-09-18T13:32:15.000Z</time>
      </trkpt>
      <trkpt lat="44.87993" lon="3.47267">
        <ele>1219</ele>
        <time>2025-09-18T13:32:33.000Z</time>
      </trkpt>
      <trkpt lat="44.87981" lon="3.47295">
        <ele>1222</ele>
        <time>2025-09-18T13:32:53.000Z</time>
      </trkpt>
      <trkpt lat="44.8797" lon="3.47323">
        <ele>1227</ele>
        <time>2025-09-18T13:33:11.000Z</time>
      </trkpt>
      <trkpt lat="44.87964" lon="3.47354">
        <ele>1226</ele>
        <time>2025-09-18T13:33:32.000Z</time>
      </trkpt>
      <trkpt lat="44.87961" lon="3.47386">
        <ele>1225</ele>
        <time>2025-09-18T13:33:49.000Z</time>
      </trkpt>
      <trkpt lat="44.87955" lon="3.47418">
        <ele>1223</ele>
        <time>2025-09-18T13:34:09.000Z</time>
      </trkpt>
      <trkpt lat="44.87951" lon="3.4745">
        <ele>1222</ele>
        <time>2025-09-18T13:34:27.000Z</time>
      </trkpt>
      <trkpt lat="44.87942" lon="3.47479">
        <ele>1220</ele>
        <time>2025-09-18T13:34:45.000Z</time>
      </trkpt>
      <trkpt lat="44.87931" lon="3.4751">
        <ele>1221</ele>
        <time>2025-09-18T13:35:05.000Z</time>
      </trkpt>
      <trkpt lat="44.87918" lon="3.47535">
        <ele>1222</ele>
        <time>2025-09-18T13:35:22.000Z</time>
      </trkpt>
      <trkpt lat="44.87898" lon="3.47554">
        <ele>1217</ele>
        <time>2025-09-18T13:35:42.000Z</time>
      </trkpt>
      <trkpt lat="44.87879" lon="3.47573">
        <ele>1220</ele>
        <time>2025-09-18T13:36:00.000Z</time>
      </trkpt>
      <trkpt lat="44.87867" lon="3.47602">
        <ele>1220</ele>
        <time>2025-09-18T13:36:23.000Z</time>
      </trkpt>
      <trkpt lat="44.87862" lon="3.47634">
        <ele>1220</ele>
        <time>2025-09-18T13:36:41.000Z</time>
      </trkpt>
      <trkpt lat="44.87856" lon="3.47665">
        <ele>1223</ele>
        <time>2025-09-18T13:36:59.000Z</time>
      </trkpt>
      <trkpt lat="44.87839" lon="3.47687">
        <ele>1221</ele>
        <time>2025-09-18T13:37:21.000Z</time>
      </trkpt>
      <trkpt lat="44.87816" lon="3.47686">
        <ele>1228</ele>
        <time>2025-09-18T13:38:13.000Z</time>
      </trkpt>
      <trkpt lat="44.87805" lon="3.47658">
        <ele>1228</ele>
        <time>2025-09-18T13:38:34.000Z</time>
      </trkpt>
      <trkpt lat="44.87792" lon="3.4763">
        <ele>1227</ele>
        <time>2025-09-18T13:38:53.000Z</time>
      </trkpt>
      <trkpt lat="44.87775" lon="3.47608">
        <ele>1227</ele>
        <time>2025-09-18T13:39:15.000Z</time>
      </trkpt>
      <trkpt lat="44.87751" lon="3.47598">
        <ele>1229</ele>
        <time>2025-09-18T13:39:48.000Z</time>
      </trkpt>
      <trkpt lat="44.87739" lon="3.47626">
        <ele>1230</ele>
        <time>2025-09-18T13:40:00.000Z</time>
      </trkpt>
      <trkpt lat="44.87727" lon="3.47654">
        <ele>1239</ele>
        <time>2025-09-18T13:40:22.000Z</time>
      </trkpt>
      <trkpt lat="44.87714" lon="3.4768">
        <ele>1243</ele>
        <time>2025-09-18T13:40:46.000Z</time>
      </trkpt>
      <trkpt lat="44.87693" lon="3.47695">
        <ele>1232</ele>
        <time>2025-09-18T13:44:01.000Z</time>
      </trkpt>
      <trkpt lat="44.87674" lon="3.47713">
        <ele>1229</ele>
        <time>2025-09-18T13:44:21.000Z</time>
      </trkpt>
      <trkpt lat="44.87662" lon="3.47741">
        <ele>1231</ele>
        <time>2025-09-18T13:44:45.000Z</time>
      </trkpt>
      <trkpt lat="44.87657" lon="3.47773">
        <ele>1227</ele>
        <time>2025-09-18T13:45:01.000Z</time>
      </trkpt>
      <trkpt lat="44.87645" lon="3.47801">
        <ele>1223</ele>
        <time>2025-09-18T13:45:19.000Z</time>
      </trkpt>
      <trkpt lat="44.87632" lon="3.47827">
        <ele>1220</ele>
        <time>2025-09-18T13:45:38.000Z</time>
      </trkpt>
      <trkpt lat="44.87619" lon="3.47855">
        <ele>1220</ele>
        <time>2025-09-18T13:45:57.000Z</time>
      </trkpt>
      <trkpt lat="44.87609" lon="3.47884">
        <ele>1217</ele>
        <time>2025-09-18T13:46:20.000Z</time>
      </trkpt>
      <trkpt lat="44.87605" lon="3.47916">
        <ele>1214</ele>
        <time>2025-09-18T13:46:39.000Z</time>
      </trkpt>
      <trkpt lat="44.87588" lon="3.47938">
        <ele>1212</ele>
        <time>2025-09-18T13:47:02.000Z</time>
      </trkpt>
      <trkpt lat="44.8757" lon="3.47959">
        <ele>1211</ele>
        <time>2025-09-18T13:47:22.000Z</time>
      </trkpt>
      <trkpt lat="44.87561" lon="3.4799">
        <ele>1208</ele>
        <time>2025-09-18T13:47:46.000Z</time>
      </trkpt>
      <trkpt lat="44.87555" lon="3.48022">
        <ele>1206</ele>
        <time>2025-09-18T13:48:08.000Z</time>
      </trkpt>
      <trkpt lat="44.87548" lon="3.48054">
        <ele>1207</ele>
        <time>2025-09-18T13:48:58.000Z</time>
      </trkpt>
      <trkpt lat="44.8754" lon="3.48084">
        <ele>1204</ele>
        <time>2025-09-18T13:49:19.000Z</time>
      </trkpt>
      <trkpt lat="44.87528" lon="3.48112">
        <ele>1202</ele>
        <time>2025-09-18T13:49:39.000Z</time>
      </trkpt>
      <trkpt lat="44.8751" lon="3.48129">
        <ele>1196</ele>
        <time>2025-09-18T13:50:01.000Z</time>
      </trkpt>
      <trkpt lat="44.8749" lon="3.48146">
        <ele>1193</ele>
        <time>2025-09-18T13:50:22.000Z</time>
      </trkpt>
      <trkpt lat="44.87475" lon="3.48169">
        <ele>1188</ele>
        <time>2025-09-18T13:50:44.000Z</time>
      </trkpt>
      <trkpt lat="44.87459" lon="3.48194">
        <ele>1185</ele>
        <time>2025-09-18T13:51:03.000Z</time>
      </trkpt>
      <trkpt lat="44.87437" lon="3.48205">
        <ele>1183</ele>
        <time>2025-09-18T13:51:25.000Z</time>
      </trkpt>
      <trkpt lat="44.87418" lon="3.48221">
        <ele>1179</ele>
        <time>2025-09-18T13:51:54.000Z</time>
      </trkpt>
      <trkpt lat="44.87415" lon="3.48252">
        <ele>1176</ele>
        <time>2025-09-18T13:55:50.000Z</time>
      </trkpt>
      <trkpt lat="44.87408" lon="3.48284">
        <ele>1170</ele>
        <time>2025-09-18T13:56:13.000Z</time>
      </trkpt>
      <trkpt lat="44.8741" lon="3.48317">
        <ele>1169</ele>
        <time>2025-09-18T13:56:34.000Z</time>
      </trkpt>
      <trkpt lat="44.8741" lon="3.4835">
        <ele>1166</ele>
        <time>2025-09-18T13:56:53.000Z</time>
      </trkpt>
      <trkpt lat="44.87407" lon="3.48382">
        <ele>1164</ele>
        <time>2025-09-18T13:57:11.000Z</time>
      </trkpt>
      <trkpt lat="44.87399" lon="3.48412">
        <ele>1159</ele>
        <time>2025-09-18T13:57:28.000Z</time>
      </trkpt>
      <trkpt lat="44.8739" lon="3.48442">
        <ele>1158</ele>
        <time>2025-09-18T13:57:45.000Z</time>
      </trkpt>
      <trkpt lat="44.87384" lon="3.48474">
        <ele>1157</ele>
        <time>2025-09-18T13:58:03.000Z</time>
      </trkpt>
      <trkpt lat="44.87377" lon="3.48505">
        <ele>1155</ele>
        <time>2025-09-18T13:58:20.000Z</time>
      </trkpt>
      <trkpt lat="44.87368" lon="3.48535">
        <ele>1153</ele>
        <time>2025-09-18T13:58:37.000Z</time>
      </trkpt>
      <trkpt lat="44.87363" lon="3.48567">
        <ele>1152</ele>
        <time>2025-09-18T13:58:54.000Z</time>
      </trkpt>
      <trkpt lat="44.87359" lon="3.486">
        <ele>1150</ele>
        <time>2025-09-18T13:59:11.000Z</time>
      </trkpt>
      <trkpt lat="44.87355" lon="3.48632">
        <ele>1145</ele>
        <time>2025-09-18T13:59:29.000Z</time>
      </trkpt>
      <trkpt lat="44.87332" lon="3.48638">
        <ele>1140</ele>
        <time>2025-09-18T13:59:47.000Z</time>
      </trkpt>
      <trkpt lat="44.87309" lon="3.4864">
        <ele>1137</ele>
        <time>2025-09-18T14:00:05.000Z</time>
      </trkpt>
      <trkpt lat="44.87289" lon="3.48658">
        <ele>1136</ele>
        <time>2025-09-18T14:00:21.000Z</time>
      </trkpt>
      <trkpt lat="44.87267" lon="3.48668">
        <ele>1132</ele>
        <time>2025-09-18T14:00:38.000Z</time>
      </trkpt>
      <trkpt lat="44.87248" lon="3.48687">
        <ele>1129</ele>
        <time>2025-09-18T14:00:54.000Z</time>
      </trkpt>
      <trkpt lat="44.87232" lon="3.48709">
        <ele>1127</ele>
        <time>2025-09-18T14:01:24.000Z</time>
      </trkpt>
      <trkpt lat="44.87225" lon="3.4874">
        <ele>1123</ele>
        <time>2025-09-18T14:01:43.000Z</time>
      </trkpt>
      <trkpt lat="44.87237" lon="3.48769">
        <ele>1123</ele>
        <time>2025-09-18T14:01:59.000Z</time>
      </trkpt>
      <trkpt lat="44.87253" lon="3.48792">
        <ele>1122</ele>
        <time>2025-09-18T14:02:15.000Z</time>
      </trkpt>
      <trkpt lat="44.87271" lon="3.48816">
        <ele>1119</ele>
        <time>2025-09-18T14:02:32.000Z</time>
      </trkpt>
      <trkpt lat="44.87277" lon="3.48847">
        <ele>1118</ele>
        <time>2025-09-18T14:04:36.000Z</time>
      </trkpt>
      <trkpt lat="44.87264" lon="3.48873">
        <ele>1119</ele>
        <time>2025-09-18T14:04:52.000Z</time>
      </trkpt>
      <trkpt lat="44.87253" lon="3.48902">
        <ele>1118</ele>
        <time>2025-09-18T14:05:10.000Z</time>
      </trkpt>
      <trkpt lat="44.87245" lon="3.48932">
        <ele>1120</ele>
        <time>2025-09-18T14:05:27.000Z</time>
      </trkpt>
      <trkpt lat="44.87243" lon="3.48964">
        <ele>1119</ele>
        <time>2025-09-18T14:05:46.000Z</time>
      </trkpt>
      <trkpt lat="44.87237" lon="3.48996">
        <ele>1119</ele>
        <time>2025-09-18T14:06:04.000Z</time>
      </trkpt>
      <trkpt lat="44.87229" lon="3.49026">
        <ele>1118</ele>
        <time>2025-09-18T14:06:24.000Z</time>
      </trkpt>
      <trkpt lat="44.87216" lon="3.49052">
        <ele>1117</ele>
        <time>2025-09-18T14:06:45.000Z</time>
      </trkpt>
      <trkpt lat="44.87202" lon="3.4908">
        <ele>1116</ele>
        <time>2025-09-18T14:07:03.000Z</time>
      </trkpt>
      <trkpt lat="44.87193" lon="3.4911">
        <ele>1114</ele>
        <time>2025-09-18T14:07:24.000Z</time>
      </trkpt>
      <trkpt lat="44.87182" lon="3.49138">
        <ele>1114</ele>
        <time>2025-09-18T14:07:43.000Z</time>
      </trkpt>
      <trkpt lat="44.87177" lon="3.4917">
        <ele>1111</ele>
        <time>2025-09-18T14:08:03.000Z</time>
      </trkpt>
      <trkpt lat="44.87182" lon="3.49201">
        <ele>1110</ele>
        <time>2025-09-18T14:08:22.000Z</time>
      </trkpt>
      <trkpt lat="44.87191" lon="3.49231">
        <ele>1110</ele>
        <time>2025-09-18T14:08:42.000Z</time>
      </trkpt>
      <trkpt lat="44.87199" lon="3.49262">
        <ele>1109</ele>
        <time>2025-09-18T14:09:04.000Z</time>
      </trkpt>
      <trkpt lat="44.87214" lon="3.49287">
        <ele>1111</ele>
        <time>2025-09-18T14:09:19.000Z</time>
      </trkpt>
      <trkpt lat="44.87212" lon="3.49319">
        <ele>1105</ele>
        <time>2025-09-18T14:09:39.000Z</time>
      </trkpt>
      <trkpt lat="44.87209" lon="3.4935">
        <ele>1104</ele>
        <time>2025-09-18T14:09:59.000Z</time>
      </trkpt>
      <trkpt lat="44.87205" lon="3.49384">
        <ele>1104</ele>
        <time>2025-09-18T14:10:18.000Z</time>
      </trkpt>
      <trkpt lat="44.872" lon="3.49417">
        <ele>1103</ele>
        <time>2025-09-18T14:10:37.000Z</time>
      </trkpt>
      <trkpt lat="44.87197" lon="3.49448">
        <ele>1101</ele>
        <time>2025-09-18T14:10:57.000Z</time>
      </trkpt>
      <trkpt lat="44.87194" lon="3.4948">
        <ele>1101</ele>
        <time>2025-09-18T14:11:14.000Z</time>
      </trkpt>
      <trkpt lat="44.87186" lon="3.4951">
        <ele>1102</ele>
        <time>2025-09-18T14:11:36.000Z</time>
      </trkpt>
      <trkpt lat="44.87165" lon="3.49525">
        <ele>1102</ele>
        <time>2025-09-18T14:11:53.000Z</time>
      </trkpt>
      <trkpt lat="44.87143" lon="3.49535">
        <ele>1103</ele>
        <time>2025-09-18T14:12:14.000Z</time>
      </trkpt>
      <trkpt lat="44.87122" lon="3.49546">
        <ele>1105</ele>
        <time>2025-09-18T14:12:37.000Z</time>
      </trkpt>
      <trkpt lat="44.871" lon="3.49554">
        <ele>1104</ele>
        <time>2025-09-18T14:12:56.000Z</time>
      </trkpt>
      <trkpt lat="44.87077" lon="3.49562">
        <ele>1105</ele>
        <time>2025-09-18T14:13:15.000Z</time>
      </trkpt>
      <trkpt lat="44.87057" lon="3.49577">
        <ele>1107</ele>
        <time>2025-09-18T14:13:39.000Z</time>
      </trkpt>
      <trkpt lat="44.87034" lon="3.49581">
        <ele>1107</ele>
        <time>2025-09-18T14:13:56.000Z</time>
      </trkpt>
      <trkpt lat="44.87011" lon="3.49578">
        <ele>1108</ele>
        <time>2025-09-18T14:14:15.000Z</time>
      </trkpt>
      <trkpt lat="44.86986" lon="3.49573">
        <ele>1109</ele>
        <time>2025-09-18T14:14:37.000Z</time>
      </trkpt>
      <trkpt lat="44.86963" lon="3.49577">
        <ele>1111</ele>
        <time>2025-09-18T14:14:57.000Z</time>
      </trkpt>
      <trkpt lat="44.86939" lon="3.49586">
        <ele>1114</ele>
        <time>2025-09-18T14:15:16.000Z</time>
      </trkpt>
      <trkpt lat="44.86917" lon="3.49594">
        <ele>1114</ele>
        <time>2025-09-18T14:15:35.000Z</time>
      </trkpt>
      <trkpt lat="44.86894" lon="3.49599">
        <ele>1116</ele>
        <time>2025-09-18T14:15:57.000Z</time>
      </trkpt>
      <trkpt lat="44.86872" lon="3.49606">
        <ele>1117</ele>
        <time>2025-09-18T14:16:15.000Z</time>
      </trkpt>
      <trkpt lat="44.86849" lon="3.49609">
        <ele>1115</ele>
        <time>2025-09-18T14:16:33.000Z</time>
      </trkpt>
      <trkpt lat="44.86826" lon="3.49614">
        <ele>1116</ele>
        <time>2025-09-18T14:16:51.000Z</time>
      </trkpt>
      <trkpt lat="44.86804" lon="3.49622">
        <ele>1115</ele>
        <time>2025-09-18T14:17:10.000Z</time>
      </trkpt>
      <trkpt lat="44.86781" lon="3.49621">
        <ele>1115</ele>
        <time>2025-09-18T14:17:27.000Z</time>
      </trkpt>
      <trkpt lat="44.8676" lon="3.49606">
        <ele>1118</ele>
        <time>2025-09-18T14:17:48.000Z</time>
      </trkpt>
      <trkpt lat="44.86738" lon="3.49596">
        <ele>1119</ele>
        <time>2025-09-18T14:18:07.000Z</time>
      </trkpt>
      <trkpt lat="44.86715" lon="3.49592">
        <ele>1122</ele>
        <time>2025-09-18T14:18:28.000Z</time>
      </trkpt>
      <trkpt lat="44.86692" lon="3.49591">
        <ele>1121</ele>
        <time>2025-09-18T14:18:45.000Z</time>
      </trkpt>
      <trkpt lat="44.86669" lon="3.49592">
        <ele>1122</ele>
        <time>2025-09-18T14:19:05.000Z</time>
      </trkpt>
      <trkpt lat="44.86646" lon="3.49591">
        <ele>1125</ele>
        <time>2025-09-18T14:19:27.000Z</time>
      </trkpt>
      <trkpt lat="44.86623" lon="3.49591">
        <ele>1126</ele>
        <time>2025-09-18T14:19:42.000Z</time>
      </trkpt>
      <trkpt lat="44.86599" lon="3.49586">
        <ele>1128</ele>
        <time>2025-09-18T14:23:23.000Z</time>
      </trkpt>
      <trkpt lat="44.86577" lon="3.49579">
        <ele>1130</ele>
        <time>2025-09-18T14:23:46.000Z</time>
      </trkpt>
      <trkpt lat="44.86556" lon="3.49562">
        <ele>1131</ele>
        <time>2025-09-18T14:24:09.000Z</time>
      </trkpt>
      <trkpt lat="44.86537" lon="3.49545">
        <ele>1131</ele>
        <time>2025-09-18T14:24:29.000Z</time>
      </trkpt>
      <trkpt lat="44.86517" lon="3.4953">
        <ele>1134</ele>
        <time>2025-09-18T14:24:49.000Z</time>
      </trkpt>
      <trkpt lat="44.86495" lon="3.49521">
        <ele>1135</ele>
        <time>2025-09-18T14:25:09.000Z</time>
      </trkpt>
      <trkpt lat="44.86472" lon="3.49516">
        <ele>1134</ele>
        <time>2025-09-18T14:25:29.000Z</time>
      </trkpt>
      <trkpt lat="44.86448" lon="3.49515">
        <ele>1136</ele>
        <time>2025-09-18T14:25:51.000Z</time>
      </trkpt>
      <trkpt lat="44.86425" lon="3.49515">
        <ele>1135</ele>
        <time>2025-09-18T14:26:12.000Z</time>
      </trkpt>
      <trkpt lat="44.86403" lon="3.49521">
        <ele>1135</ele>
        <time>2025-09-18T14:26:34.000Z</time>
      </trkpt>
      <trkpt lat="44.86385" lon="3.49542">
        <ele>1135</ele>
        <time>2025-09-18T14:26:56.000Z</time>
      </trkpt>
      <trkpt lat="44.86364" lon="3.49527">
        <ele>1134</ele>
        <time>2025-09-18T14:27:10.000Z</time>
      </trkpt>
      <trkpt lat="44.86341" lon="3.49518">
        <ele>1131</ele>
        <time>2025-09-18T14:27:31.000Z</time>
      </trkpt>
      <trkpt lat="44.86318" lon="3.49514">
        <ele>1131</ele>
        <time>2025-09-18T14:27:52.000Z</time>
      </trkpt>
      <trkpt lat="44.86295" lon="3.49515">
        <ele>1127</ele>
        <time>2025-09-18T14:28:13.000Z</time>
      </trkpt>
      <trkpt lat="44.86272" lon="3.4951">
        <ele>1127</ele>
        <time>2025-09-18T14:28:32.000Z</time>
      </trkpt>
      <trkpt lat="44.8625" lon="3.49504">
        <ele>1126</ele>
        <time>2025-09-18T14:28:51.000Z</time>
      </trkpt>
      <trkpt lat="44.86227" lon="3.49496">
        <ele>1127</ele>
        <time>2025-09-18T14:29:10.000Z</time>
      </trkpt>
      <trkpt lat="44.86207" lon="3.49479">
        <ele>1125</ele>
        <time>2025-09-18T14:29:31.000Z</time>
      </trkpt>
      <trkpt lat="44.86196" lon="3.49452">
        <ele>1130</ele>
        <time>2025-09-18T14:29:49.000Z</time>
      </trkpt>
      <trkpt lat="44.86181" lon="3.49428">
        <ele>1127</ele>
        <time>2025-09-18T14:30:07.000Z</time>
      </trkpt>
      <trkpt lat="44.86165" lon="3.49404">
        <ele>1124</ele>
        <time>2025-09-18T14:30:26.000Z</time>
      </trkpt>
      <trkpt lat="44.86146" lon="3.49386">
        <ele>1120</ele>
        <time>2025-09-18T14:30:45.000Z</time>
      </trkpt>
      <trkpt lat="44.86126" lon="3.4937">
        <ele>1121</ele>
        <time>2025-09-18T14:31:04.000Z</time>
      </trkpt>
      <trkpt lat="44.86107" lon="3.49352">
        <ele>1122</ele>
        <time>2025-09-18T14:31:22.000Z</time>
      </trkpt>
      <trkpt lat="44.86091" lon="3.49329">
        <ele>1122</ele>
        <time>2025-09-18T14:31:42.000Z</time>
      </trkpt>
      <trkpt lat="44.86081" lon="3.493">
        <ele>1124</ele>
        <time>2025-09-18T14:32:02.000Z</time>
      </trkpt>
      <trkpt lat="44.86069" lon="3.49272">
        <ele>1126</ele>
        <time>2025-09-18T14:32:21.000Z</time>
      </trkpt>
      <trkpt lat="44.8605" lon="3.49254">
        <ele>1120</ele>
        <time>2025-09-18T14:32:38.000Z</time>
      </trkpt>
      <trkpt lat="44.86032" lon="3.49234">
        <ele>1122</ele>
        <time>2025-09-18T14:32:57.000Z</time>
      </trkpt>
      <trkpt lat="44.86013" lon="3.49215">
        <ele>1123</ele>
        <time>2025-09-18T14:33:17.000Z</time>
      </trkpt>
      <trkpt lat="44.85994" lon="3.49196">
        <ele>1123</ele>
        <time>2025-09-18T14:33:37.000Z</time>
      </trkpt>
      <trkpt lat="44.85975" lon="3.49177">
        <ele>1124</ele>
        <time>2025-09-18T14:33:54.000Z</time>
      </trkpt>
      <trkpt lat="44.85957" lon="3.49158">
        <ele>1123</ele>
        <time>2025-09-18T14:34:17.000Z</time>
      </trkpt>
      <trkpt lat="44.85939" lon="3.49136">
        <ele>1122</ele>
        <time>2025-09-18T14:34:35.000Z</time>
      </trkpt>
      <trkpt lat="44.85943" lon="3.49103">
        <ele>1124</ele>
        <time>2025-09-18T14:34:54.000Z</time>
      </trkpt>
      <trkpt lat="44.85957" lon="3.49078">
        <ele>1123</ele>
        <time>2025-09-18T14:35:12.000Z</time>
      </trkpt>
      <trkpt lat="44.85976" lon="3.49059">
        <ele>1122</ele>
        <time>2025-09-18T14:36:01.000Z</time>
      </trkpt>
      <trkpt lat="44.85997" lon="3.49045">
        <ele>1125</ele>
        <time>2025-09-18T14:36:21.000Z</time>
      </trkpt>
      <trkpt lat="44.8601" lon="3.49017">
        <ele>1124</ele>
        <time>2025-09-18T14:36:44.000Z</time>
      </trkpt>
      <trkpt lat="44.86013" lon="3.48984">
        <ele>1124</ele>
        <time>2025-09-18T14:37:05.000Z</time>
      </trkpt>
      <trkpt lat="44.86017" lon="3.48952">
        <ele>1124</ele>
        <time>2025-09-18T14:37:24.000Z</time>
      </trkpt>
      <trkpt lat="44.86021" lon="3.48921">
        <ele>1127</ele>
        <time>2025-09-18T14:37:43.000Z</time>
      </trkpt>
      <trkpt lat="44.86026" lon="3.48889">
        <ele>1128</ele>
        <time>2025-09-18T14:38:02.000Z</time>
      </trkpt>
      <trkpt lat="44.8603" lon="3.48857">
        <ele>1129</ele>
        <time>2025-09-18T14:38:21.000Z</time>
      </trkpt>
      <trkpt lat="44.86034" lon="3.48826">
        <ele>1130</ele>
        <time>2025-09-18T14:38:39.000Z</time>
      </trkpt>
      <trkpt lat="44.86045" lon="3.48797">
        <ele>1129</ele>
        <time>2025-09-18T14:38:58.000Z</time>
      </trkpt>
      <trkpt lat="44.86062" lon="3.48775">
        <ele>1130</ele>
        <time>2025-09-18T14:39:17.000Z</time>
      </trkpt>
      <trkpt lat="44.86085" lon="3.48765">
        <ele>1135</ele>
        <time>2025-09-18T14:39:34.000Z</time>
      </trkpt>
      <trkpt lat="44.86103" lon="3.48744">
        <ele>1136</ele>
        <time>2025-09-18T14:39:53.000Z</time>
      </trkpt>
      <trkpt lat="44.86116" lon="3.48717">
        <ele>1145</ele>
        <time>2025-09-18T14:40:13.000Z</time>
      </trkpt>
      <trkpt lat="44.8615" lon="3.48686">
        <ele>1132</ele>
        <time>2025-09-18T14:47:52.000Z</time>
      </trkpt>
      <trkpt lat="44.86124" lon="3.487">
        <ele>1134</ele>
        <time>2025-09-18T14:47:53.000Z</time>
      </trkpt>
    </trkseg>
  </trk>
</gpx>